Time;durP1;ratioP1;P1;durP2;ratioP2;P2;SDS_P1;SDS_P2;PMS_P1;PMS_P2;Temp;Humidity;BMP_temperature;BMP_pressure;BME280_temperature;BME280_humidity;BME280_pressure;Samples;Min_cycle;Max_cycle;Signal;HPM_P1;HPM_P2
2021/11/15 00:00:10;;;;;;;14.35;7.22;;;;;;;14.57;47.57;102351.94;5006743;28;20032;-61
2021/11/15 00:02:36;;;;;;;11.35;6.57;;;;;;;14.54;47.51;102352.16;5023366;28;20036;-61
2021/11/15 00:05:02;;;;;;;10.63;6.43;;;;;;;14.49;47.81;102344.41;4989447;28;20393;-61
2021/11/15 00:07:27;;;;;;;13.35;6.85;;;;;;;14.48;48.94;102345.41;5006781;28;20105;-60
2021/11/15 00:09:52;;;;;;;12.20;6.20;;;;;;;14.48;48.94;102341.84;5007449;28;20095;-61
2021/11/15 00:12:18;;;;;;;13.65;6.60;;;;;;;14.47;48.50;102350.88;5020614;28;20084;-60
2021/11/15 00:14:45;;;;;;;11.35;6.40;;;;;;;14.46;47.98;102350.03;5024822;28;20448;-60
2021/11/15 00:17:11;;;;;;;13.68;6.85;;;;;;;14.42;49.01;102351.25;5024981;28;20036;-61
2021/11/15 00:19:36;;;;;;;15.18;5.88;;;;;;;14.41;47.72;102346.81;5006066;28;20018;-60
2021/11/15 00:22:03;;;;;;;14.55;7.43;;;;;;;14.44;48.03;102354.69;5026195;28;20026;-60
2021/11/15 00:24:29;;;;;;;14.20;7.05;;;;;;;14.42;48.06;102351.25;5024393;28;20025;-60
2021/11/15 00:26:54;;;;;;;12.25;7.13;;;;;;;14.41;48.98;102344.13;4996522;28;20160;-60
2021/11/15 00:29:20;;;;;;;13.15;6.70;;;;;;;14.44;49.16;102348.44;5024969;28;20033;-62
2021/11/15 00:31:45;;;;;;;15.77;6.82;;;;;;;14.48;49.35;102350.78;5006816;28;20014;-60
2021/11/15 00:34:11;;;;;;;15.77;7.93;;;;;;;14.46;48.67;102339.25;5023638;28;20025;-60
2021/11/15 00:36:36;;;;;;;15.27;6.95;;;;;;;14.50;49.24;102340.75;5025415;28;20398;-60
2021/11/15 00:39:04;;;;;;;12.68;6.82;;;;;;;14.53;49.33;102345.03;5004867;28;20021;-61
2021/11/15 00:41:29;;;;;;;15.23;7.95;;;;;;;14.45;49.39;102321.38;5007065;28;20026;-60
2021/11/15 00:43:55;;;;;;;15.55;7.72;;;;;;;14.52;48.39;102328.00;5005028;28;20046;-61
2021/11/15 00:46:21;;;;;;;16.23;7.60;;;;;;;14.52;49.52;102322.59;5024826;28;20029;-61
2021/11/15 00:48:48;;;;;;;14.10;6.68;;;;;;;14.60;48.71;102329.25;5009580;28;20026;-61
2021/11/15 00:51:13;;;;;;;13.63;6.88;;;;;;;14.63;49.51;102335.25;5022812;28;20078;-61
2021/11/15 00:53:38;;;;;;;15.65;8.00;;;;;;;14.66;49.67;102328.75;5002695;28;20104;-62
2021/11/15 00:56:04;;;;;;;17.83;8.45;;;;;;;14.70;48.62;102335.63;5007868;28;20145;-61
2021/11/15 00:58:29;;;;;;;15.30;7.63;;;;;;;14.70;49.96;102330.25;5023658;28;20048;-61
2021/11/15 01:00:55;;;;;;;14.05;7.47;;;;;;;14.71;49.79;102330.16;5007092;28;22370;-61
2021/11/15 01:03:20;;;;;;;17.15;7.47;;;;;;;14.74;49.31;102337.13;5022682;28;20100;-62
2021/11/15 01:05:49;;;;;;;18.02;8.25;;;;;;;14.76;49.75;102332.47;5008077;28;20097;-60
2021/11/15 01:08:16;;;;;;;12.88;7.10;;;;;;;14.76;50.14;102329.78;5001690;28;20116;-61
2021/11/15 01:10:42;;;;;;;16.83;7.55;;;;;;;14.75;49.21;102322.66;5017010;28;20025;-61
2021/11/15 01:13:07;;;;;;;15.35;7.68;;;;;;;14.80;49.47;102326.72;5034623;28;20075;-61
2021/11/15 01:15:34;;;;;;;16.00;7.85;;;;;;;14.81;49.67;102331.13;5033767;28;20030;-61
2021/11/15 01:18:00;;;;;;;14.18;7.53;;;;;;;14.88;48.79;102342.31;5034258;28;20048;-61
2021/11/15 01:20:29;;;;;;;13.65;7.28;;;;;;;14.89;49.75;102338.63;5035468;28;20025;-60
2021/11/15 01:22:56;;;;;;;21.35;7.45;;;;;;;14.92;49.19;102339.25;5017006;28;20060;-61
2021/11/15 01:25:21;;;;;;;17.85;8.60;;;;;;;14.89;49.35;102333.22;5034693;28;20025;-60
2021/11/15 01:27:47;;;;;;;16.65;8.40;;;;;;;14.96;49.17;102342.56;5016959;28;20056;-60
2021/11/15 01:30:15;;;;;;;16.17;8.45;;;;;;;14.99;48.71;102337.78;5034493;28;20097;-60
2021/11/15 01:32:42;;;;;;;15.68;7.90;;;;;;;14.94;48.85;102321.09;4999852;28;20059;-60
2021/11/15 01:35:07;;;;;;;20.05;9.05;;;;;;;14.99;50.04;102324.28;5001158;28;20043;-61
2021/11/15 01:37:33;;;;;;;16.65;9.48;;;;;;;15.06;50.16;102330.06;5034442;28;20545;-60
2021/11/15 01:39:59;;;;;;;17.20;8.43;;;;;;;15.06;48.81;102330.06;5034201;28;20021;-61
2021/11/15 01:42:24;;;;;;;17.30;8.93;;;;;;;15.04;48.90;102329.34;5034362;28;20463;-61
2021/11/15 01:44:50;;;;;;;15.77;8.43;;;;;;;15.07;48.52;102324.53;5034134;28;20402;-60
2021/11/15 01:47:15;;;;;;;15.90;8.43;;;;;;;15.11;50.02;102323.31;5034598;28;20365;-60
2021/11/15 01:49:41;;;;;;;16.75;9.32;;;;;;;15.15;48.92;102323.94;5034443;28;20025;-61
2021/11/15 01:52:06;;;;;;;17.42;8.77;;;;;;;15.19;48.65;102311.06;5000139;28;20089;-60
2021/11/15 01:54:32;;;;;;;21.25;9.80;;;;;;;15.20;49.42;102313.63;5017438;28;20048;-60
2021/11/15 01:56:58;;;;;;;17.95;9.20;;;;;;;15.25;48.83;102314.13;5034545;28;20025;-60
2021/11/15 01:59:23;;;;;;;18.30;10.07;;;;;;;15.21;49.28;102309.97;5034803;28;20108;-61
2021/11/15 02:01:49;;;;;;;19.30;8.77;;;;;;;15.28;48.95;102319.28;5034155;28;20021;-60
2021/11/15 02:04:14;;;;;;;17.13;9.55;;;;;;;15.32;50.07;102322.59;5017022;28;20029;-60
2021/11/15 02:06:40;;;;;;;20.65;10.50;;;;;;;15.35;50.46;102323.22;5033944;28;20025;-60
2021/11/15 02:09:06;;;;;;;15.93;8.82;;;;;;;15.34;48.68;102316.09;5016384;28;20075;-61
2021/11/15 02:11:32;;;;;;;19.58;10.30;;;;;;;15.36;49.31;102322.22;5034289;28;20363;-60
2021/11/15 02:13:59;;;;;;;18.67;8.50;;;;;;;15.39;50.05;102321.97;5016330;28;20030;-60
2021/11/15 02:16:25;;;;;;;18.08;9.18;;;;;;;15.42;48.99;102320.84;5034235;28;20033;-60
2021/11/15 02:18:50;;;;;;;12.65;8.10;;;;;;;15.45;48.77;102313.38;5016754;28;20021;-60
2021/11/15 02:21:16;;;;;;;19.58;9.65;;;;;;;15.41;48.73;102305.66;5016404;28;20044;-60
2021/11/15 02:23:43;;;;;;;18.45;9.50;;;;;;;15.50;48.74;102319.28;5033921;28;20022;-60
2021/11/15 02:26:11;;;;;;;17.70;9.10;;;;;;;15.53;48.85;102320.88;5033637;28;20036;-60
2021/11/15 02:28:40;;;;;;;15.68;8.88;;;;;;;15.55;49.49;102317.06;5017003;28;20116;-60
2021/11/15 02:31:07;;;;;;;22.48;9.23;;;;;;;15.58;49.92;102314.13;5033794;28;20033;-61
2021/11/15 02:33:34;;;;;;;21.10;10.05;;;;;;;15.48;49.41;102291.56;5033948;28;20083;-62
2021/11/15 02:36:01;;;;;;;18.38;9.77;;;;;;;15.62;50.01;102315.59;5017509;28;20025;-64
2021/11/15 02:38:27;;;;;;;22.30;9.55;;;;;;;15.65;49.07;102309.94;5034266;28;20056;-61
2021/11/15 02:40:52;;;;;;;16.77;9.23;;;;;;;15.67;49.98;102312.50;5035291;28;20034;-61
2021/11/15 02:43:17;;;;;;;19.02;10.20;;;;;;;15.66;50.28;102306.25;5035434;28;20040;-60
2021/11/15 02:45:43;;;;;;;17.83;9.77;;;;;;;15.67;48.85;102296.31;5037850;28;20045;-60
2021/11/15 02:48:09;;;;;;;17.50;8.32;;;;;;;15.70;49.11;102296.91;5019917;28;20031;-60
2021/11/15 02:50:34;;;;;;;19.95;9.35;;;;;;;15.70;48.73;102296.91;5037484;28;20033;-60
2021/11/15 02:53:07;;;;;;;19.83;9.93;;;;;;;15.68;48.86;102287.22;5037408;28;20022;-60
2021/11/15 02:55:34;;;;;;;19.00;8.90;;;;;;;15.70;49.47;102298.75;5037176;28;20025;-60
2021/11/15 02:58:01;;;;;;;17.52;8.98;;;;;;;15.68;48.57;102293.50;5038281;28;20108;-61
2021/11/15 03:00:58;;;;;;;18.30;10.13;;;;;;;15.68;48.85;102290.78;5019999;28;20033;-61
2021/11/15 03:03:24;;;;;;;17.20;9.05;;;;;;;15.68;49.91;102293.50;5017676;28;20108;-61
2021/11/15 03:05:52;;;;;;;19.92;8.93;;;;;;;15.67;48.54;102291.75;5036923;28;20390;-61
2021/11/15 03:08:19;;;;;;;16.23;9.52;;;;;;;15.66;49.92;102286.50;5019031;28;20025;-61
2021/11/15 03:10:46;;;;;;;23.00;9.88;;;;;;;15.65;49.20;102288.34;5037111;28;20021;-61
2021/11/15 03:13:13;;;;;;;18.65;9.32;;;;;;;15.64;49.71;102292.00;5036718;28;20091;-61
2021/11/15 03:15:42;;;;;;;20.38;9.35;;;;;;;15.63;48.57;102294.84;5020189;28;20026;-61
2021/11/15 03:18:13;;;;;;;18.20;9.15;;;;;;;15.59;50.07;102293.38;4997191;28;20049;-61
2021/11/15 03:20:41;;;;;;;18.98;10.30;;;;;;;15.61;48.97;102297.66;4980115;28;20533;-61
2021/11/15 03:23:12;;;;;;;19.75;9.35;;;;;;;15.63;50.07;102305.66;4997362;28;20026;-61
2021/11/15 03:25:38;;;;;;;19.58;9.98;;;;;;;15.63;49.15;102306.50;4997327;28;20100;-61
2021/11/15 03:28:04;;;;;;;19.20;9.63;;;;;;;15.61;49.13;102311.16;5002820;28;20030;-61
2021/11/15 03:30:29;;;;;;;18.48;9.52;;;;;;;15.54;50.50;102291.06;4979618;28;20034;-61
2021/11/15 03:32:55;;;;;;;22.77;10.18;;;;;;;15.62;50.17;102310.19;4996722;28;20033;-61
2021/11/15 03:35:21;;;;;;;20.75;9.98;;;;;;;15.63;49.46;102306.50;4997122;28;20105;-61
2021/11/15 03:37:47;;;;;;;16.33;8.95;;;;;;;15.63;48.92;102303.78;4996930;28;20026;-61
2021/11/15 03:40:15;;;;;;;13.73;8.43;;;;;;;15.65;49.65;102301.84;4997323;28;20399;-61
2021/11/15 03:42:42;;;;;;;17.50;9.60;;;;;;;15.65;48.92;102299.16;4997344;28;20460;-61
2021/11/15 03:45:10;;;;;;;17.95;9.02;;;;;;;15.61;48.98;102291.41;4979187;28;20050;-61
2021/11/15 03:47:36;;;;;;;21.33;9.00;;;;;;;15.67;49.02;102297.16;4979369;28;20018;-61
2021/11/15 03:50:03;;;;;;;19.10;9.25;;;;;;;15.70;49.16;102307.72;4996823;28;20048;-61
2021/11/15 03:52:29;;;;;;;24.15;11.07;;;;;;;15.71;49.73;102304.06;4996389;28;20499;-61
2021/11/15 03:54:54;;;;;;;17.70;8.98;;;;;;;15.69;50.35;102295.19;4979007;28;20030;-61
2021/11/15 03:57:21;;;;;;;17.48;9.25;;;;;;;15.70;50.14;102296.91;4979433;28;20037;-61
2021/11/15 03:59:46;;;;;;;19.58;9.13;;;;;;;15.73;49.82;102303.91;4996402;28;20026;-61
2021/11/15 04:02:12;;;;;;;18.50;10.02;;;;;;;15.71;48.86;102293.25;5012437;28;20021;-61
2021/11/15 04:04:51;;;;;;;17.15;9.70;;;;;;;15.74;50.07;102298.38;5016198;28;20452;-61
2021/11/15 04:07:27;;;;;;;20.42;8.90;;;;;;;15.73;49.85;102304.78;5016372;28;20021;-61
2021/11/15 04:09:58;;;;;;;18.67;9.00;;;;;;;15.68;49.89;102293.50;5016317;28;20030;-61
2021/11/15 04:12:24;;;;;;;17.15;9.13;;;;;;;15.71;50.28;102293.25;4998885;28;20390;-61
2021/11/15 04:14:51;;;;;;;18.88;9.65;;;;;;;15.70;49.28;102288.81;5015649;28;20017;-61
2021/11/15 04:17:17;;;;;;;19.23;9.88;;;;;;;15.70;49.73;102296.91;4998170;28;20025;-61
2021/11/15 04:19:42;;;;;;;17.67;8.98;;;;;;;15.74;50.24;102297.53;4998414;28;20498;-61
2021/11/15 04:22:08;;;;;;;18.45;9.02;;;;;;;15.73;49.70;102291.25;5015818;28;20386;-61
2021/11/15 04:24:33;;;;;;;24.15;9.88;;;;;;;15.74;49.16;102297.53;5015766;28;20483;-61
2021/11/15 04:26:59;;;;;;;16.70;8.55;;;;;;;15.72;48.71;102294.06;4998248;28;20041;-60
2021/11/15 04:29:24;;;;;;;19.80;9.68;;;;;;;15.69;50.13;102300.59;4998305;28;20034;-61
2021/11/15 04:31:49;;;;;;;21.25;9.82;;;;;;;15.70;49.79;102296.91;5015568;28;20017;-60
2021/11/15 04:34:15;;;;;;;15.55;8.65;;;;;;;15.73;49.85;102302.06;4982046;28;20095;-61
2021/11/15 04:36:40;;;;;;;15.38;9.10;;;;;;;15.73;49.70;102293.97;5015249;28;20021;-60
2021/11/15 04:39:06;;;;;;;19.45;7.90;;;;;;;15.76;49.36;102294.69;4998265;28;20021;-60
2021/11/15 04:41:31;;;;;;;20.35;8.82;;;;;;;15.78;49.89;102295.41;5015463;28;20026;-60
2021/11/15 04:43:56;;;;;;;17.70;8.02;;;;;;;15.71;49.75;102293.25;4997295;28;20054;-60
2021/11/15 04:46:22;;;;;;;23.08;9.57;;;;;;;15.67;49.79;102285.50;4997877;28;20025;-60
2021/11/15 04:48:48;;;;;;;21.65;8.63;;;;;;;15.71;48.69;102286.97;5015388;28;20037;-60
2021/11/15 04:51:13;;;;;;;14.23;7.70;;;;;;;15.72;49.43;102294.06;5015467;28;20076;-60
2021/11/15 04:53:39;;;;;;;17.15;9.05;;;;;;;15.71;49.31;102298.66;5015295;28;20026;-60
2021/11/15 04:56:05;;;;;;;17.90;8.70;;;;;;;15.73;48.76;102298.50;4998022;28;20025;-60
2021/11/15 04:58:30;;;;;;;15.88;8.43;;;;;;;15.76;50.25;102302.78;5015196;28;20026;-60
2021/11/15 05:00:56;;;;;;;16.58;8.43;;;;;;;15.78;50.00;102301.69;5014982;28;20025;-60
2021/11/15 05:03:21;;;;;;;16.88;7.65;;;;;;;15.76;49.22;102300.97;4997527;28;20026;-60
2021/11/15 05:05:47;;;;;;;15.30;8.07;;;;;;;15.80;49.36;102306.97;4997114;28;20022;-60
2021/11/15 05:08:12;;;;;;;17.48;8.43;;;;;;;15.77;49.18;102307.22;4997578;28;20029;-60
2021/11/15 05:10:38;;;;;;;15.95;8.52;;;;;;;15.78;49.16;102308.91;5014924;28;20402;-60
2021/11/15 05:13:03;;;;;;;19.08;9.15;;;;;;;15.76;49.72;102300.09;4997146;28;20398;-60
2021/11/15 05:15:29;;;;;;;18.70;8.57;;;;;;;15.80;49.69;102306.97;4997146;28;20053;-61
2021/11/15 05:17:55;;;;;;;18.30;10.15;;;;;;;15.80;50.24;102293.47;5014873;28;20025;-61
2021/11/15 05:20:22;;;;;;;15.77;7.95;;;;;;;15.82;49.04;102303.16;4997875;28;20495;-62
2021/11/15 05:22:47;;;;;;;15.35;8.35;;;;;;;15.84;49.79;102303.00;4997769;28;20371;-61
2021/11/15 05:25:14;;;;;;;16.48;7.90;;;;;;;15.85;48.54;102299.34;5015770;28;20030;-61
2021/11/15 05:27:40;;;;;;;18.17;9.25;;;;;;;15.81;48.54;102297.88;5015264;28;20112;-61
2021/11/15 05:30:08;;;;;;;17.73;8.52;;;;;;;15.83;48.81;102304.03;5014857;28;20084;-60
2021/11/15 05:32:33;;;;;;;20.55;9.45;;;;;;;15.83;50.40;102299.44;4997401;28;20034;-61
2021/11/15 05:34:59;;;;;;;20.83;9.43;;;;;;;15.84;49.72;102301.19;4999953;28;20379;-61
2021/11/15 05:37:25;;;;;;;20.65;8.48;;;;;;;15.85;49.37;102297.50;4995591;28;20149;-63
2021/11/15 05:39:50;;;;;;;23.08;9.80;;;;;;;15.86;49.64;102301.03;4977652;28;20030;-60
2021/11/15 05:42:16;;;;;;;15.80;8.40;;;;;;;15.83;49.81;102296.75;4994756;28;20026;-61
2021/11/15 05:44:41;;;;;;;23.60;10.30;;;;;;;15.85;48.71;102304.75;4994972;28;20050;-60
2021/11/15 05:47:07;;;;;;;23.05;9.50;;;;;;;15.84;50.02;102297.63;4961415;28;20030;-60
2021/11/15 05:49:32;;;;;;;16.35;8.63;;;;;;;15.83;48.90;102296.75;4978047;28;20050;-60
2021/11/15 05:51:58;;;;;;;18.10;9.02;;;;;;;15.86;49.98;102298.34;4995504;28;20390;-60
2021/11/15 05:54:23;;;;;;;17.40;9.40;;;;;;;15.86;48.79;102301.03;4977591;28;20034;-60
2021/11/15 05:56:49;;;;;;;19.17;8.98;;;;;;;15.83;49.13;102298.63;4961410;28;20022;-61
2021/11/15 05:59:14;;;;;;;17.27;8.50;;;;;;;15.86;48.79;102303.75;4994994;28;20060;-60
2021/11/15 06:01:43;;;;;;;20.55;9.18;;;;;;;15.86;49.87;102295.63;4994869;28;20026;-61
2021/11/15 06:04:08;;;;;;;21.73;9.20;;;;;;;15.85;48.93;102302.03;4995014;28;20241;-61
2021/11/15 06:06:34;;;;;;;14.98;7.68;;;;;;;15.86;49.09;102301.91;4995256;28;20062;-60
2021/11/15 06:08:59;;;;;;;16.75;8.63;;;;;;;15.84;50.32;102303.00;4961509;28;20031;-61
2021/11/15 06:11:25;;;;;;;18.60;9.25;;;;;;;15.87;49.07;102302.75;4961381;28;20034;-60
2021/11/15 06:13:50;;;;;;;16.90;9.20;;;;;;;15.86;48.83;102303.75;4977166;28;20035;-60
2021/11/15 06:16:15;;;;;;;16.83;7.88;;;;;;;15.82;49.14;102302.28;4961118;28;20361;-61
2021/11/15 06:18:41;;;;;;;17.08;9.13;;;;;;;15.86;48.86;102312.72;4995988;28;20026;-61
2021/11/15 06:21:07;;;;;;;18.45;8.45;;;;;;;15.82;49.74;102310.41;4998006;28;20030;-61
2021/11/15 06:23:33;;;;;;;19.17;8.68;;;;;;;15.79;49.90;102305.25;4998239;28;20063;-61
2021/11/15 06:25:59;;;;;;;14.05;7.97;;;;;;;15.81;49.21;102308.66;4980756;28;20034;-61
2021/11/15 06:28:24;;;;;;;19.88;8.88;;;;;;;15.78;49.42;102303.53;4998623;28;20023;-60
2021/11/15 06:30:49;;;;;;;13.70;8.27;;;;;;;15.82;49.03;102315.81;4998155;28;20034;-60
2021/11/15 06:33:15;;;;;;;14.80;7.90;;;;;;;15.84;49.25;102313.81;4997953;28;20081;-61
2021/11/15 06:35:40;;;;;;;15.52;8.50;;;;;;;15.82;49.18;102310.41;4981168;28;20113;-61
2021/11/15 06:38:06;;;;;;;17.20;9.27;;;;;;;15.82;49.76;102311.25;4997877;28;20022;-61
2021/11/15 06:40:32;;;;;;;20.17;8.65;;;;;;;15.86;49.30;102311.84;4998029;28;20030;-61
2021/11/15 06:42:57;;;;;;;15.25;8.07;;;;;;;15.85;50.00;102310.16;4998072;28;20034;-61
2021/11/15 06:45:22;;;;;;;15.45;7.20;;;;;;;15.84;48.77;102303.00;4997760;28;20439;-61
2021/11/15 06:47:48;;;;;;;13.85;8.18;;;;;;;15.80;49.03;102299.69;4964203;28;20058;-61
2021/11/15 06:50:17;;;;;;;19.10;8.93;;;;;;;15.78;48.57;102301.69;4997820;28;20019;-61
2021/11/15 06:52:43;;;;;;;17.35;8.73;;;;;;;15.78;48.49;102303.53;5016352;28;20010;-61
2021/11/15 06:55:09;;;;;;;17.55;8.20;;;;;;;15.78;48.93;102306.22;5036786;28;20029;-61
2021/11/15 06:57:36;;;;;;;18.70;8.07;;;;;;;15.76;49.45;102308.19;5037142;28;20084;-61
2021/11/15 07:00:04;;;;;;;14.15;7.40;;;;;;;15.68;49.76;102293.50;5037221;28;20410;-61
2021/11/15 07:02:30;;;;;;;19.75;9.32;;;;;;;15.66;49.45;102295.44;5036785;28;20109;-62
2021/11/15 07:04:55;;;;;;;15.10;8.02;;;;;;;15.69;49.09;102311.41;5036561;28;20117;-61
2021/11/15 07:07:20;;;;;;;20.48;9.95;;;;;;;15.72;48.98;102319.25;5036608;28;20410;-61
2021/11/15 07:09:48;;;;;;;16.48;7.95;;;;;;;15.70;49.36;102321.22;5019008;28;20023;-61
2021/11/15 07:12:13;;;;;;;18.05;10.00;;;;;;;15.73;49.84;102322.81;5037330;28;20049;-61
2021/11/15 07:14:39;;;;;;;18.25;9.55;;;;;;;15.78;48.92;102344.03;5036756;28;20484;-61
2021/11/15 07:17:05;;;;;;;19.70;9.98;;;;;;;15.77;49.90;102345.91;5036809;28;20087;-61
2021/11/15 07:19:30;;;;;;;20.65;9.60;;;;;;;15.73;48.56;102339.03;5036837;28;20401;-61
2021/11/15 07:21:56;;;;;;;25.55;10.48;;;;;;;15.78;49.73;102349.44;5036514;28;20083;-61
2021/11/15 07:24:22;;;;;;;19.80;9.30;;;;;;;15.69;48.77;102349.22;5036876;28;20408;-61
2021/11/15 07:26:47;;;;;;;18.92;9.48;;;;;;;15.67;48.85;102353.91;5036407;28;20021;-61
2021/11/15 07:29:13;;;;;;;20.38;10.35;;;;;;;15.64;48.68;102354.16;5018171;28;20084;-61
2021/11/15 07:31:39;;;;;;;19.88;9.15;;;;;;;15.59;49.30;102352.81;5036321;28;20018;-61
2021/11/15 07:34:05;;;;;;;22.38;9.55;;;;;;;15.60;50.00;102360.78;5018928;28;20025;-61
2021/11/15 07:36:32;;;;;;;18.63;9.75;;;;;;;15.60;49.98;102355.41;5036356;28;20059;-61
2021/11/15 07:38:57;;;;;;;19.63;9.15;;;;;;;15.57;49.64;102344.84;5036145;28;20032;-62
2021/11/15 07:41:23;;;;;;;21.92;10.98;;;;;;;15.65;49.17;102347.78;5035886;28;20029;-61
2021/11/15 07:43:48;;;;;;;21.45;10.10;;;;;;;15.68;48.40;102350.22;5036280;28;20128;-61
2021/11/15 07:46:13;;;;;;;19.30;10.60;;;;;;;15.70;48.82;102356.34;5018462;28;20045;-60
2021/11/15 07:48:39;;;;;;;19.70;10.32;;;;;;;15.72;48.30;102354.38;5036271;28;20022;-61
2021/11/15 07:51:04;;;;;;;27.50;11.63;;;;;;;15.77;48.60;102355.84;5036333;28;20034;-61
2021/11/15 07:53:31;;;;;;;26.42;12.43;;;;;;;15.74;49.47;102341.59;5036101;28;20022;-61
2021/11/15 07:55:56;;;;;;;22.27;11.82;;;;;;;15.71;49.81;102333.78;5018403;28;20478;-61
2021/11/15 07:58:22;;;;;;;24.88;12.45;;;;;;;15.84;49.59;102354.34;5018420;28;20079;-61
2021/11/15 08:00:48;;;;;;;29.95;14.95;;;;;;;15.84;48.28;102348.94;5035879;28;20087;-61
2021/11/15 08:03:14;;;;;;;31.08;14.98;;;;;;;15.85;49.21;102350.69;5035689;28;20398;-61
2021/11/15 08:05:40;;;;;;;32.05;15.48;;;;;;;15.86;48.22;102344.28;5035386;28;20025;-61
2021/11/15 08:08:05;;;;;;;35.90;17.10;;;;;;;15.87;49.87;102352.28;5035762;28;20059;-61
2021/11/15 08:10:31;;;;;;;39.03;17.48;;;;;;;15.86;48.32;102346.97;5035287;28;20025;-61
2021/11/15 08:12:57;;;;;;;40.17;18.50;;;;;;;15.84;49.69;102352.53;5035431;28;20134;-61
2021/11/15 08:15:25;;;;;;;36.25;17.73;;;;;;;15.85;48.54;102356.94;5035317;28;20025;-61
2021/11/15 08:17:54;;;;;;;43.05;18.98;;;;;;;15.86;49.79;102355.94;5035269;28;20390;-61
2021/11/15 08:20:31;;;;;;;46.05;20.83;;;;;;;15.87;49.28;102348.69;5035183;28;20033;-61
2021/11/15 08:23:00;;;;;;;39.47;19.63;;;;;;;15.86;49.25;102352.38;5001035;28;20053;-61
2021/11/15 08:25:25;;;;;;;44.03;19.05;;;;;;;15.87;48.49;102346.00;5035298;28;20096;-61
2021/11/15 08:27:52;;;;;;;42.95;18.60;;;;;;;15.88;48.66;102342.31;5035279;28;20053;-61
2021/11/15 08:30:17;;;;;;;42.28;19.83;;;;;;;15.84;48.60;102330.91;5035340;28;20033;-61
2021/11/15 08:32:43;;;;;;;41.88;19.88;;;;;;;15.88;48.41;102350.44;5034808;28;20045;-61
2021/11/15 08:35:09;;;;;;;38.10;18.38;;;;;;;15.85;48.45;102338.03;5017324;28;20025;-61
2021/11/15 08:37:34;;;;;;;43.08;20.42;;;;;;;15.88;49.25;102348.59;5017227;28;20079;-61
2021/11/15 08:40:00;;;;;;;46.25;20.00;;;;;;;15.91;49.15;102353.75;5017405;28;20435;-61
2021/11/15 08:42:25;;;;;;;41.03;17.95;;;;;;;15.92;48.15;102355.44;5034495;28;20040;-61
2021/11/15 08:44:58;;;;;;;40.40;18.25;;;;;;;15.88;49.53;102356.69;5017297;28;20048;-61
2021/11/15 08:47:23;;;;;;;;;;;;;;;15.84;48.05;102357.06;5035467;28;20025;-61
2021/11/15 08:49:49;;;;;;;40.63;18.27;;;;;;;15.83;48.06;102361.59;5034620;28;20328;-61
2021/11/15 08:52:15;;;;;;;38.45;18.25;;;;;;;15.81;49.29;102355.47;5017156;28;20060;-61
2021/11/15 08:54:41;;;;;;;46.72;19.73;;;;;;;15.84;49.30;102352.53;5017002;28;20476;-61
2021/11/15 08:57:07;;;;;;;49.05;20.58;;;;;;;15.84;49.10;102352.53;5034744;28;20049;-61
2021/11/15 08:59:32;;;;;;;46.40;20.90;;;;;;;15.89;48.19;102349.44;5034679;28;20025;-61
2021/11/15 09:01:59;;;;;;;43.80;20.38;;;;;;;15.91;48.52;102344.78;5034692;28;20048;-61
2021/11/15 09:04:24;;;;;;;47.33;19.73;;;;;;;15.85;49.19;102342.56;5034347;28;20079;-61
2021/11/15 09:06:50;;;;;;;46.22;20.83;;;;;;;15.87;48.25;102346.88;5016776;28;20021;-61
2021/11/15 09:09:16;;;;;;;41.97;18.73;;;;;;;15.88;49.48;102353.13;5034470;28;20108;-61
2021/11/15 09:11:46;;;;;;;42.63;19.38;;;;;;;15.87;48.07;102346.88;5034481;28;20071;-61
2021/11/15 09:14:12;;;;;;;38.72;17.33;;;;;;;15.85;49.09;102353.38;5034785;28;20452;-61
2021/11/15 09:16:38;;;;;;;49.22;19.95;;;;;;;15.88;49.68;102350.44;5034539;28;20520;-61
2021/11/15 09:19:03;;;;;;;41.60;18.38;;;;;;;15.87;49.00;102351.41;5034686;28;20025;-61
2021/11/15 09:21:29;;;;;;;53.38;19.98;;;;;;;15.92;49.10;102351.88;5035181;28;20470;-60
2021/11/15 09:23:54;;;;;;;41.85;19.45;;;;;;;15.89;49.43;102361.09;5034441;28;20021;-61
2021/11/15 09:26:23;;;;;;;50.10;21.25;;;;;;;15.91;49.03;102355.59;5034259;28;20025;-60
2021/11/15 09:28:48;;;;;;;45.10;19.85;;;;;;;15.94;49.21;102358.03;5030972;28;20032;-61
2021/11/15 09:31:14;;;;;;;43.92;19.10;;;;;;;15.92;47.96;102354.59;5014688;28;20100;-60
2021/11/15 09:33:39;;;;;;;56.88;21.67;;;;;;;15.94;49.42;102358.88;5014829;28;20017;-61
2021/11/15 09:36:05;;;;;;;50.25;21.23;;;;;;;15.92;49.12;102365.41;4996930;28;20021;-60
2021/11/15 09:38:31;;;;;;;48.63;20.75;;;;;;;15.90;49.01;102368.25;5014413;28;20037;-60
2021/11/15 09:41:00;;;;;;;49.28;21.92;;;;;;;15.90;48.72;102368.25;5014072;28;20029;-60
2021/11/15 09:43:34;;;;;;;44.70;19.80;;;;;;;15.87;48.85;102359.50;4996647;28;20063;-60
2021/11/15 09:46:05;;;;;;;50.08;22.73;;;;;;;15.91;47.89;102356.47;5015067;28;20049;-60
2021/11/15 09:48:36;;;;;;;48.83;20.60;;;;;;;15.93;48.48;102359.00;5014419;28;20026;-61
2021/11/15 09:51:03;;;;;;;46.20;20.88;;;;;;;15.93;49.34;102356.31;5014486;28;20034;-60
2021/11/15 09:53:29;;;;;;;52.83;21.73;;;;;;;15.94;48.55;102350.78;5014139;28;20045;-61
2021/11/15 09:55:55;;;;;;;44.47;19.38;;;;;;;15.92;48.60;102347.34;4996960;28;20476;-61
2021/11/15 09:58:22;;;;;;;49.65;22.02;;;;;;;15.91;48.36;102347.47;5014432;28;20491;-60
2021/11/15 10:00:48;;;;;;;49.17;20.25;;;;;;;15.89;48.97;102347.59;5014610;28;20029;-60
2021/11/15 10:03:13;;;;;;;47.92;20.10;;;;;;;15.96;49.04;102356.06;5014419;28;20018;-61
2021/11/15 10:05:38;;;;;;;45.53;20.95;;;;;;;15.90;49.01;102340.34;5014628;28;20069;-61
2021/11/15 10:08:09;;;;;;;47.95;20.05;;;;;;;15.95;49.49;102351.63;5014364;28;20479;-60
2021/11/15 10:10:57;;;;;;;46.85;20.88;;;;;;;15.92;47.75;102343.78;4996671;28;20079;-60
2021/11/15 10:13:31;;;;;;;43.53;18.40;;;;;;;15.84;48.36;102330.91;5014347;28;20034;-61
2021/11/15 10:15:59;;;;;;;43.53;18.75;;;;;;;15.89;49.04;102336.78;5013961;28;20099;-61
2021/11/15 10:18:59;;;;;;;40.15;17.58;;;;;;;15.88;48.64;102343.19;5014049;28;20030;-61
2021/11/15 10:21:36;;;;;;;43.25;18.92;;;;;;;15.88;48.32;102342.31;5013579;28;20101;-61
2021/11/15 10:24:12;;;;;;;49.58;17.85;;;;;;;15.89;49.24;102346.72;5014085;28;20474;-61
2021/11/15 10:26:50;;;;;;;49.35;19.48;;;;;;;15.89;49.25;102338.63;5014020;28;20022;-61
2021/11/15 10:29:19;;;;;;;46.85;20.17;;;;;;;15.90;49.12;102334.94;5013896;28;20034;-61
2021/11/15 10:31:58;;;;;;;40.88;17.20;;;;;;;15.90;48.84;102343.91;5014321;28;20463;-61
2021/11/15 10:34:27;;;;;;;41.22;18.50;;;;;;;15.88;48.21;102339.63;5013819;28;20048;-61
2021/11/15 10:36:58;;;;;;;43.83;17.83;;;;;;;15.89;48.76;102342.19;5014220;28;20072;-61
2021/11/15 10:39:51;;;;;;;53.22;20.60;;;;;;;15.89;49.72;102347.59;5014726;28;20022;-61
2021/11/15 10:42:18;;;;;;;41.22;16.98;;;;;;;15.91;49.57;102355.59;5014017;28;20105;-61
2021/11/15 10:44:58;;;;;;;48.10;18.55;;;;;;;15.92;48.80;102341.94;5013506;28;20046;-61
2021/11/15 10:47:30;;;;;;;46.20;17.60;;;;;;;15.91;48.91;102342.94;5013964;28;20029;-61
2021/11/15 10:50:25;;;;;;;51.65;19.48;;;;;;;15.90;49.31;102343.06;4996778;28;20025;-61
2021/11/15 10:53:05;;;;;;;38.30;18.23;;;;;;;15.89;49.15;102330.50;4996574;28;20038;-61
2021/11/15 10:55:39;;;;;;;44.38;18.42;;;;;;;15.90;49.60;102327.69;5014208;28;20430;-61
2021/11/15 10:58:18;;;;;;;50.90;18.98;;;;;;;15.88;48.19;102321.56;4996963;28;20022;-61
2021/11/15 11:00:51;;;;;;;42.85;18.90;;;;;;;15.90;49.67;102325.00;5014265;28;20030;-61
2021/11/15 11:03:22;;;;;;;43.83;18.83;;;;;;;15.93;48.47;102330.16;5014284;28;20463;-61
2021/11/15 11:05:50;;;;;;;45.15;18.58;;;;;;;15.95;48.87;102332.72;5017466;28;20487;-61
2021/11/15 11:08:22;;;;;;;48.95;18.02;;;;;;;15.97;49.35;102325.34;5017458;28;20029;-61
2021/11/15 11:11:05;;;;;;;45.10;19.55;;;;;;;15.96;48.26;102320.94;5017435;28;20105;-61
2021/11/15 11:14:18;;;;;;;47.70;18.40;;;;;;;15.96;47.93;102316.38;5000748;28;20057;-61